Time;durP1;ratioP1;P1;durP2;ratioP2;P2;SDS_P1;SDS_P2;PMS_P1;PMS_P2;Temp;Humidity;BMP_temperature;BMP_pressure;BME280_temperature;BME280_humidity;BME280_pressure;Samples;Min_cycle;Max_cycle;Signal;HPM_P1;HPM_P2
2023/04/15 00:01:04;;;;;;;;;;;9.30;99.90;;;;;;5096791;28;20273;-74
2023/04/15 00:03:30;;;;;;;;;;;9.10;99.90;;;;;;5096850;28;19908;-73
2023/04/15 00:05:56;;;;;;;;;;;9.10;99.90;;;;;;5096883;28;19909;-73
2023/04/15 00:08:22;;;;;;;;;;;9.10;99.90;;;;;;5096865;28;19912;-73
2023/04/15 00:10:48;;;;;;;;;;;9.00;99.90;;;;;;5096543;28;19912;-73
2023/04/15 00:13:14;;;;;;;;;;;9.00;99.90;;;;;;5096545;28;19908;-73
2023/04/15 00:15:39;;;;;;;;;;;9.10;99.90;;;;;;5078339;28;20281;-72
2023/04/15 00:18:06;;;;;;;;;;;9.00;99.90;;;;;;5096481;28;20018;-71
2023/04/15 00:20:32;;;;;;;;;;;8.90;99.90;;;;;;5078209;28;19957;-73
2023/04/15 00:22:59;;;;;;;;;;;8.90;99.90;;;;;;5096391;28;20003;-74
2023/04/15 00:25:25;;;;;;;;;;;8.90;99.90;;;;;;5096293;28;19993;-72
2023/04/15 00:27:50;;;;;;;;;;;8.80;99.90;;;;;;5096282;28;20383;-73
2023/04/15 00:30:16;;;;;;;;;;;8.80;99.90;;;;;;5096210;28;19915;-72
2023/04/15 00:32:41;;;;;;;;;;;8.70;99.90;;;;;;5095438;28;19935;-72
2023/04/15 00:35:07;;;;;;;;;;;8.60;99.90;;;;;;5096131;28;19996;-72
2023/04/15 00:37:34;;;;;;;;;;;8.60;99.90;;;;;;5096118;28;19908;-72
2023/04/15 00:40:00;;;;;;;;;;;8.60;99.90;;;;;;5095813;28;19916;-72
2023/04/15 00:42:26;;;;;;;;;;;8.50;99.90;;;;;;5096255;28;19934;-73
2023/04/15 00:44:52;;;;;;;;;;;8.50;99.90;;;;;;5095937;28;19916;-73
2023/04/15 00:47:18;;;;;;;;;;;8.50;99.90;;;;;;5096029;28;19912;-72
2023/04/15 00:49:44;;;;;;;;;;;8.40;99.90;;;;;;5095943;28;19916;-73
2023/04/15 00:52:09;;;;;;;;;;;8.40;99.90;;;;;;5095783;28;20349;-71
2023/04/15 00:54:35;;;;;;;;;;;8.40;99.90;;;;;;5077652;28;20011;-73
2023/04/15 00:57:00;;;;;;;;;;;8.30;99.90;;;;;;5095827;28;19908;-73
2023/04/15 00:59:26;;;;;;;;;;;8.30;99.90;;;;;;5095791;28;19999;-72
2023/04/15 01:01:52;;;;;;;;;;;8.30;99.90;;;;;;5095806;28;19908;-72
2023/04/15 01:04:17;;;;;;;;;;;8.30;99.90;;;;;;5077775;28;20310;-74
2023/04/15 01:06:43;;;;;;;;;;;8.30;99.90;;;;;;5095530;28;20313;-73
2023/04/15 01:09:09;;;;;;;;;;;8.20;99.90;;;;;;5095951;28;19908;-72
2023/04/15 01:11:35;;;;;;;;;;;8.10;99.90;;;;;;5095331;28;19919;-72
2023/04/15 01:14:01;;;;;;;;;;;8.10;99.90;;;;;;5095596;28;20268;-71
2023/04/15 01:16:27;;;;;;;;;;;8.00;99.90;;;;;;5095606;28;19923;-73
2023/04/15 01:18:53;;;;;;;;;;;8.00;99.90;;;;;;5077072;28;19908;-71
2023/04/15 01:21:18;;;;;;;;;;;7.90;99.90;;;;;;5095288;28;20395;-72
2023/04/15 01:23:46;;;;;;;;;;;7.80;99.90;;;;;;5095164;28;19957;-72
2023/04/15 01:26:12;;;;;;;;;;;8.00;99.90;;;;;;5095122;28;19908;-72
2023/04/15 01:28:37;;;;;;;;;;;7.90;99.90;;;;;;5095077;28;20318;-71
2023/04/15 01:31:07;;;;;;;;;;;7.80;99.90;;;;;;5094962;28;19912;-73
2023/04/15 01:33:33;;;;;;;;;;;7.80;99.90;;;;;;5095394;28;19997;-72
2023/04/15 01:35:58;;;;;;;;;;;7.80;99.90;;;;;;5095231;28;19916;-73
2023/04/15 01:38:25;;;;;;;;;;;7.70;99.90;;;;;;5095053;28;19950;-72
2023/04/15 01:40:51;;;;;;;;;;;7.70;99.90;;;;;;5094711;28;19959;-72
2023/04/15 01:43:16;;;;;;;;;;;7.80;99.90;;;;;;5094900;28;19916;-72
2023/04/15 01:45:42;;;;;;;;;;;7.80;99.90;;;;;;5093999;28;19908;-72
2023/04/15 01:48:08;;;;;;;;;;;7.80;99.90;;;;;;5094746;28;20364;-74
2023/04/15 01:50:35;;;;;;;;;;;7.70;99.90;;;;;;5094694;28;19953;-72
2023/04/15 01:53:01;;;;;;;;;;;7.70;99.90;;;;;;5076497;28;19913;-73
2023/04/15 01:55:26;;;;;;;;;;;7.70;99.90;;;;;;5094576;28;19914;-72
2023/04/15 01:57:52;;;;;;;;;;;7.70;99.90;;;;;;5094502;28;19961;-73
2023/04/15 02:00:17;;;;;;;;;;;7.60;99.90;;;;;;5094626;28;20380;-74
2023/04/15 02:02:43;;;;;;;;;;;7.60;99.90;;;;;;5094481;28;19908;-73
2023/04/15 02:05:09;;;;;;;;;;;7.60;99.90;;;;;;5094411;28;19954;-73
2023/04/15 02:07:36;;;;;;;;;;;7.60;99.90;;;;;;5094383;28;19908;-72
2023/04/15 02:10:02;;;;;;;;;;;7.60;99.90;;;;;;5076162;28;20310;-72
2023/04/15 02:12:28;;;;;;;;;;;7.60;99.90;;;;;;5094181;28;19916;-72
2023/04/15 02:14:54;;;;;;;;;;;7.60;99.90;;;;;;5094189;28;19994;-72
2023/04/15 02:17:20;;;;;;;;;;;7.50;99.90;;;;;;5094208;28;19915;-72
2023/04/15 02:19:47;;;;;;;;;;;7.50;99.90;;;;;;5094269;28;19908;-73
2023/04/15 02:22:17;;;;;;;;;;;7.50;99.90;;;;;;5094139;28;19957;-72
2023/04/15 02:24:43;;;;;;;;;;;7.50;99.90;;;;;;5094396;28;19969;-72
2023/04/15 02:27:08;;;;;;;;;;;7.50;99.90;;;;;;5094064;28;19916;-74
2023/04/15 02:29:34;;;;;;;;;;;7.50;99.90;;;;;;5094012;28;19931;-71
2023/04/15 02:32:00;;;;;;;;;;;7.60;99.90;;;;;;5093910;28;19912;-72
2023/04/15 02:34:26;;;;;;;;;;;7.50;99.90;;;;;;5093953;28;19908;-72
2023/04/15 02:36:56;;;;;;;;;;;7.50;99.90;;;;;;5093939;28;20395;-74
2023/04/15 02:39:21;;;;;;;;;;;7.50;99.90;;;;;;5076004;28;20383;-72
2023/04/15 02:41:50;;;;;;;;;;;7.40;99.90;;;;;;5093384;28;19920;-72
2023/04/15 02:44:19;;;;;;;;;;;7.50;99.90;;;;;;5093885;28;19996;-73
2023/04/15 02:46:49;;;;;;;;;;;7.50;99.90;;;;;;5093809;28;19908;-73
2023/04/15 02:49:15;;;;;;;;;;;7.50;99.90;;;;;;5094198;28;20327;-74
2023/04/15 02:51:41;;;;;;;;;;;7.50;99.90;;;;;;5093903;28;19961;-72
2023/04/15 02:54:07;;;;;;;;;;;7.50;99.90;;;;;;5093861;28;19908;-72
2023/04/15 02:56:33;;;;;;;;;;;7.50;99.90;;;;;;5098510;28;20304;-71
2023/04/15 02:58:58;;;;;;;;;;;7.40;99.90;;;;;;5100648;28;19912;-73
2023/04/15 03:01:25;;;;;;;;;;;7.40;99.90;;;;;;5100466;28;19908;-71
2023/04/15 03:03:50;;;;;;;;;;;7.40;99.90;;;;;;5082221;28;19908;-73
2023/04/15 03:06:16;;;;;;;;;;;7.40;99.90;;;;;;5100423;28;19930;-72
2023/04/15 03:08:41;;;;;;;;;;;7.40;99.90;;;;;;5100401;28;19958;-74
2023/04/15 03:11:07;;;;;;;;;;;7.40;99.90;;;;;;5100287;28;19912;-72
2023/04/15 03:13:33;;;;;;;;;;;7.40;99.90;;;;;;5100358;28;19973;-72
2023/04/15 03:15:58;;;;;;;;;;;7.20;99.90;;;;;;5081932;28;19912;-73
2023/04/15 03:18:24;;;;;;;;;;;6.90;99.90;;;;;;5100312;28;19916;-73
2023/04/15 03:20:50;;;;;;;;;;;6.90;99.90;;;;;;5100283;28;19908;-74
2023/04/15 03:23:16;;;;;;;;;;;7.00;99.90;;;;;;5100256;28;19908;-73
2023/04/15 03:25:41;;;;;;;;;;;6.90;99.90;;;;;;5081997;28;20280;-72
2023/04/15 03:28:07;;;;;;;;;;;7.00;99.90;;;;;;5100245;28;19915;-72
2023/04/15 03:30:32;;;;;;;;;;;7.00;99.90;;;;;;5081995;28;19915;-73
2023/04/15 03:32:58;;;;;;;;;;;7.00;99.90;;;;;;5100078;28;19920;-72
2023/04/15 03:35:24;;;;;;;;;;;7.00;99.90;;;;;;5100334;28;20364;-72
2023/04/15 03:37:49;;;;;;;;;;;6.90;99.90;;;;;;5100266;28;19940;-73
2023/04/15 03:40:15;;;;;;;;;;;6.90;99.90;;;;;;5099830;28;19963;-72
2023/04/15 03:42:41;;;;;;;;;;;6.90;99.90;;;;;;5100587;28;19908;-74
2023/04/15 03:45:07;;;;;;;;;;;6.90;99.90;;;;;;5081866;28;19999;-71
2023/04/15 03:47:32;;;;;;;;;;;6.80;99.90;;;;;;5100270;28;20253;-72
2023/04/15 03:49:58;;;;;;;;;;;6.80;99.90;;;;;;5100172;28;19947;-72
2023/04/15 03:52:23;;;;;;;;;;;6.90;99.90;;;;;;5099901;28;19912;-72
2023/04/15 03:54:49;;;;;;;;;;;6.90;99.90;;;;;;5100121;28;19908;-72
2023/04/15 03:57:15;;;;;;;;;;;6.90;99.90;;;;;;5099866;28;19908;-73
2023/04/15 03:59:40;;;;;;;;;;;6.80;99.90;;;;;;5100090;28;19908;-72
2023/04/15 04:02:06;;;;;;;;;;;6.80;99.90;;;;;;5099903;28;19908;-72
2023/04/15 04:04:31;;;;;;;;;;;6.80;99.90;;;;;;5100371;28;20012;-71
2023/04/15 04:06:57;;;;;;;;;;;6.80;99.90;;;;;;5098096;28;19915;-73
2023/04/15 04:09:23;;;;;;;;;;;6.80;99.90;;;;;;5078441;28;19908;-72
2023/04/15 04:11:48;;;;;;;;;;;6.90;99.90;;;;;;5096563;28;20364;-73
2023/04/15 04:14:14;;;;;;;;;;;6.90;99.90;;;;;;5078455;28;19958;-72
2023/04/15 04:16:39;;;;;;;;;;;6.90;99.90;;;;;;5096948;28;20285;-72
2023/04/15 04:19:05;;;;;;;;;;;6.90;99.90;;;;;;5096449;28;19931;-72
2023/04/15 04:21:33;;;;;;;;;;;6.90;99.90;;;;;;5096479;28;19947;-73
2023/04/15 04:23:58;;;;;;;;;;;6.90;99.90;;;;;;5096344;28;20364;-71
2023/04/15 04:26:24;;;;;;;;;;;7.00;99.90;;;;;;5096602;28;19953;-73
2023/04/15 04:28:50;;;;;;;;;;;7.10;99.90;;;;;;5096713;28;19908;-73
2023/04/15 04:31:15;;;;;;;;;;;7.10;99.90;;;;;;5096222;28;20368;-73
2023/04/15 04:33:41;;;;;;;;;;;7.10;99.90;;;;;;5096392;28;19915;-72
2023/04/15 04:36:07;;;;;;;;;;;7.20;99.90;;;;;;5096227;28;19950;-74
2023/04/15 04:38:32;;;;;;;;;;;7.20;1.00;;;;;;5096139;28;19915;-72
2023/04/15 04:40:58;;;;;;;;;;;7.30;1.00;;;;;;5095729;28;19924;-72
2023/04/15 04:43:23;;;;;;;;;;;7.30;1.00;;;;;;5096067;28;20304;-73
2023/04/15 04:45:49;;;;;;;;;;;7.40;1.00;;;;;;5096046;28;20288;-72
2023/04/15 04:48:15;;;;;;;;;;;7.40;1.00;;;;;;5095931;28;19954;-72
2023/04/15 04:50:41;;;;;;;;;;;7.40;1.00;;;;;;5095890;28;19908;-72
2023/04/15 04:53:07;;;;;;;;;;;7.50;1.00;;;;;;5077573;28;19912;-73
2023/04/15 04:55:35;;;;;;;;;;;7.50;1.00;;;;;;5095767;28;20372;-73
2023/04/15 04:58:01;;;;;;;;;;;7.50;1.00;;;;;;5095843;28;20321;-73
2023/04/15 05:00:27;;;;;;;;;;;7.50;1.00;;;;;;5096218;28;19965;-72
2023/04/15 05:02:52;;;;;;;;;;;7.50;1.00;;;;;;5095663;28;19994;-72
2023/04/15 05:05:18;;;;;;;;;;;7.60;1.00;;;;;;5095611;28;19955;-73
2023/04/15 05:07:43;;;;;;;;;;;7.60;1.00;;;;;;5095728;28;19912;-73
2023/04/15 05:10:09;;;;;;;;;;;7.60;1.00;;;;;;5095490;28;20405;-73
2023/04/15 05:12:36;;;;;;;;;;;7.60;1.00;;;;;;5095843;28;19919;-72
2023/04/15 05:15:01;;;;;;;;;;;7.60;1.00;;;;;;5095366;28;20041;-72
2023/04/15 05:17:27;;;;;;;;;;;7.60;1.00;;;;;;5095364;28;19999;-74
2023/04/15 05:19:53;;;;;;;;;;;7.70;1.00;;;;;;5095143;28;20391;-74
2023/04/15 05:22:18;;;;;;;;;;;7.60;1.00;;;;;;5095757;28;19996;-73
2023/04/15 05:24:44;;;;;;;;;;;7.70;1.00;;;;;;5095449;28;20383;-74
2023/04/15 05:27:10;;;;;;;;;;;7.70;1.00;;;;;;5095160;28;19916;-73
2023/04/15 05:29:36;;;;;;;;;;;7.70;1.00;;;;;;5095123;28;19915;-72
2023/04/15 05:32:01;;;;;;;;;;;7.70;1.00;;;;;;5094994;28;19912;-73
2023/04/15 05:34:27;;;;;;;;;;;7.70;1.00;;;;;;5095009;28;19915;-74
2023/04/15 05:36:52;;;;;;;;;;;7.70;1.00;;;;;;5094972;28;19908;-74
2023/04/15 05:39:18;;;;;;;;;;;7.80;1.00;;;;;;5094974;28;19918;-72
2023/04/15 05:41:44;;;;;;;;;;;7.80;1.00;;;;;;5094502;28;20380;-73
2023/04/15 05:44:09;;;;;;;;;;;7.80;1.00;;;;;;5094888;28;19991;-72
2023/04/15 05:46:35;;;;;;;;;;;7.90;1.00;;;;;;5094773;28;19909;-73
2023/04/15 05:49:00;;;;;;;;;;;7.90;1.00;;;;;;5094923;28;19908;-73
2023/04/15 05:51:26;;;;;;;;;;;7.90;99.90;;;;;;5094757;28;20380;-73
2023/04/15 05:53:52;;;;;;;;;;;8.00;99.90;;;;;;5094922;28;19931;-73
2023/04/15 05:56:19;;;;;;;;;;;8.00;99.90;;;;;;5076326;28;19908;-75
2023/04/15 05:58:45;;;;;;;;;;;8.20;99.90;;;;;;5094507;28;19916;-72
2023/04/15 06:01:10;;;;;;;;;;;8.10;99.90;;;;;;5094701;28;19908;-73
2023/04/15 06:03:36;;;;;;;;;;;8.20;99.90;;;;;;5094620;28;20287;-73
2023/04/15 06:06:02;;;;;;;;;;;8.20;99.90;;;;;;5094478;28;20348;-73
2023/04/15 06:08:28;;;;;;;;;;;8.20;99.90;;;;;;5094502;28;20287;-73
2023/04/15 06:10:54;;;;;;;;;;;8.30;99.90;;;;;;5076088;28;20426;-74
2023/04/15 06:13:19;;;;;;;;;;;8.40;99.90;;;;;;5094336;28;19908;-73
2023/04/15 06:15:45;;;;;;;;;;;8.50;99.90;;;;;;5094845;28;19912;-73
2023/04/15 06:18:10;;;;;;;;;;;8.60;99.90;;;;;;5094443;28;20312;-72
2023/04/15 06:20:36;;;;;;;;;;;8.80;99.90;;;;;;5076061;28;19908;-73
2023/04/15 06:23:02;;;;;;;;;;;9.10;99.90;;;;;;5076027;28;19908;-73
2023/04/15 06:25:27;;;;;;;;;;;9.70;99.90;;;;;;5094095;28;19993;-72
2023/04/15 06:27:53;;;;;;;;;;;10.30;99.90;;;;;;5094077;28;19908;-73
2023/04/15 06:30:18;;;;;;;;;;;10.80;99.90;;;;;;5093810;28;20023;-74
2023/04/15 06:32:44;;;;;;;;;;;11.20;99.90;;;;;;5093910;28;20254;-73
2023/04/15 06:35:10;;;;;;;;;;;11.60;99.90;;;;;;5093892;28;19990;-73
2023/04/15 06:37:36;;;;;;;;;;;11.80;99.90;;;;;;5094221;28;20361;-73
2023/04/15 06:40:03;;;;;;;;;;;12.20;99.90;;;;;;5093793;28;19916;-73
2023/04/15 06:42:29;;;;;;;;;;;12.50;99.90;;;;;;5075461;28;20269;-72
2023/04/15 06:44:55;;;;;;;;;;;12.30;99.90;;;;;;5093862;28;19915;-73
2023/04/15 06:47:21;;;;;;;;;;;12.10;99.90;;;;;;5093769;28;19987;-73
2023/04/15 06:49:46;;;;;;;;;;;11.80;99.90;;;;;;5093713;28;19908;-72
2023/04/15 06:52:12;;;;;;;;;;;11.70;99.90;;;;;;5094120;28;19912;-73
2023/04/15 06:54:38;;;;;;;;;;;11.50;99.90;;;;;;5093789;28;19912;-73
2023/04/15 06:57:03;;;;;;;;;;;11.60;99.90;;;;;;5093657;28;19984;-73
2023/04/15 06:59:29;;;;;;;;;;;11.90;99.90;;;;;;5094200;28;19915;-73
2023/04/15 07:01:54;;;;;;;;;;;12.00;99.90;;;;;;5093727;28;20390;-74
2023/04/15 07:04:20;;;;;;;;;;;12.30;99.90;;;;;;5093739;28;19908;-74
2023/04/15 07:06:45;;;;;;;;;;;12.60;99.90;;;;;;5093714;28;19908;-75
2023/04/15 07:09:11;;;;;;;;;;;12.80;99.90;;;;;;5093595;28;20372;-73
2023/04/15 07:11:37;;;;;;;;;;;13.30;99.90;;;;;;5075304;28;19916;-74
2023/04/15 07:14:02;;;;;;;;;;;13.70;99.90;;;;;;5093534;28;19908;-73
2023/04/15 07:16:28;;;;;;;;;;;14.40;99.90;;;;;;5093660;28;20272;-73
2023/04/15 07:18:54;;;;;;;;;;;15.00;99.90;;;;;;5093604;28;20379;-73
2023/04/15 07:21:20;;;;;;;;;;;15.60;99.90;;;;;;5093949;28;20396;-73
2023/04/15 07:23:46;;;;;;;;;;;16.20;99.90;;;;;;5093824;28;19915;-73
2023/04/15 07:26:11;;;;;;;;;;;17.20;99.90;;;;;;5093447;28;20011;-73
2023/04/15 07:28:37;;;;;;;;;;;17.40;99.90;;;;;;5093520;28;19908;-73
2023/04/15 07:31:03;;;;;;;;;;;17.90;99.90;;;;;;5093575;28;20307;-73
2023/04/15 07:33:28;;;;;;;;;;;18.50;99.90;;;;;;5093527;28;20060;-73
2023/04/15 07:35:54;;;;;;;;;;;19.30;99.90;;;;;;5093348;28;19908;-74
2023/04/15 07:38:21;;;;;;;;;;;19.70;99.90;;;;;;5093177;28;19915;-75
2023/04/15 07:40:47;;;;;;;;;;;20.10;99.90;;;;;;5093414;28;19920;-74
2023/04/15 07:43:12;;;;;;;;;;;20.70;99.90;;;;;;5095240;28;19959;-74
2023/04/15 07:45:38;;;;;;;;;;;21.40;99.90;;;;;;5097151;28;19957;-74
2023/04/15 07:48:05;;;;;;;;;;;21.70;99.90;;;;;;5097124;28;19908;-73
2023/04/15 07:50:31;;;;;;;;;;;21.90;99.90;;;;;;5096986;28;19912;-76
2023/04/15 07:52:56;;;;;;;;;;;22.10;99.90;;;;;;5097260;28;20368;-74
2023/04/15 07:55:22;;;;;;;;;;;22.50;99.90;;;;;;5097027;28;20364;-73
2023/04/15 07:57:48;;;;;;;;;;;22.80;99.90;;;;;;5096820;28;19908;-75
2023/04/15 08:00:15;;;;;;;;;;;23.60;99.90;;;;;;5094791;28;20343;-74
2023/04/15 08:02:41;;;;;;;;;;;24.00;99.90;;;;;;5073380;28;20375;-74
2023/04/15 08:05:08;;;;;;;;;;;24.00;99.90;;;;;;5096619;28;19908;-72
2023/04/15 08:07:36;;;;;;;;;;;23.80;99.90;;;;;;5095704;28;19915;-74
2023/04/15 08:10:02;;;;;;;;;;;24.40;99.90;;;;;;5097041;28;19915;-74
2023/04/15 08:12:28;;;;;;;;;;;25.00;99.90;;;;;;5096259;28;19912;-72
2023/04/15 08:14:54;;;;;;;;;;;24.40;99.90;;;;;;5083049;28;19916;-72
2023/04/15 08:17:20;;;;;;;;;;;25.00;99.90;;;;;;5076204;28;19951;-73
2023/04/15 08:19:47;;;;;;;;;;;22.40;99.90;;;;;;5058480;28;19985;-72
2023/04/15 08:22:13;;;;;;;;;;;20.60;6.10;;;;;;5075841;28;19966;-74
2023/04/15 08:24:38;;;;;;;;;;;18.00;1.00;;;;;;5076507;28;19916;-73
2023/04/15 08:27:04;;;;;;;;;;;16.90;99.90;;;;;;5075138;28;19908;-74
2023/04/15 08:29:31;;;;;;;;;;;19.10;99.90;;;;;;5076138;28;20372;-72
2023/04/15 08:31:56;;;;;;;;;;;22.00;99.90;;;;;;5075782;28;19913;-72
2023/04/15 08:34:22;;;;;;;;;;;25.00;99.90;;;;;;5076021;28;19935;-71
2023/04/15 08:36:48;;;;;;;;;;;27.40;99.90;;;;;;5075924;28;19938;-72
2023/04/15 08:39:13;;;;;;;;;;;28.60;99.90;;;;;;5076009;28;20361;-72
2023/04/15 08:41:45;;;;;;;;;;;29.20;99.70;;;;;;5087012;28;19920;-72
2023/04/15 08:44:13;;;;;;;;;;;26.40;90.50;;;;;;5095110;28;20421;-71
2023/04/15 08:46:41;;;;;;;;;;;25.40;48.00;;;;;;5096304;28;20360;-72
2023/04/15 08:49:09;;;;;;;;;;;24.50;1.00;;;;;;5096180;28;19909;-72
2023/04/15 08:51:35;;;;;;;;;;;22.60;99.90;;;;;;5066974;28;19913;-72
2023/04/15 08:54:01;;;;;;;;;;;19.70;1.00;;;;;;5075152;28;19908;-71
2023/04/15 08:56:30;;;;;;;;;;;17.80;1.00;;;;;;5057971;28;19999;-75
2023/04/15 08:58:56;;;;;;;;;;;17.90;1.00;;;;;;5075728;28;19908;-71
2023/04/15 09:01:22;;;;;;;;;;;21.80;1.00;;;;;;5054268;28;19912;-72
2023/04/15 09:03:49;;;;;;;;;;;22.70;1.00;;;;;;5095748;28;20414;-73
2023/04/15 09:06:15;;;;;;;;;;;24.70;1.00;;;;;;5077773;28;20041;-71
2023/04/15 09:08:41;;;;;;;;;;;24.40;1.00;;;;;;5095750;28;19908;-72
2023/04/15 09:11:07;;;;;;;;;;;22.70;1.00;;;;;;5095365;28;19908;-73
2023/04/15 09:13:32;;;;;;;;;;;20.40;1.00;;;;;;5096020;28;19908;-72
2023/04/15 09:16:00;;;;;;;;;;;22.30;1.00;;;;;;5095485;28;20401;-74
2023/04/15 09:18:30;;;;;;;;;;;26.90;1.00;;;;;;5095585;28;19993;-74
2023/04/15 09:20:56;;;;;;;;;;;29.50;1.00;;;;;;5090652;28;19909;-71
2023/04/15 09:23:21;;;;;;;;;;;26.70;1.00;;;;;;5057432;28;19912;-72
2023/04/15 09:25:48;;;;;;;;;;;28.10;1.00;;;;;;5075350;28;19908;-72
2023/04/15 09:28:14;;;;;;;;;;;30.20;1.00;;;;;;5075011;28;20324;-73
2023/04/15 09:30:44;;;;;;;;;;;32.50;1.00;;;;;;5074782;28;19916;-74
2023/04/15 09:33:13;;;;;;;;;;;32.20;1.00;;;;;;5075182;28;20003;-73
2023/04/15 09:35:39;;;;;;;;;;;29.50;1.00;;;;;;5074848;28;19913;-73
2023/04/15 09:38:06;;;;;;;;;;;31.50;1.00;;;;;;5075074;28;19908;-72
2023/04/15 09:40:33;;;;;;;;;;;30.70;1.00;;;;;;5074224;28;20345;-75
2023/04/15 09:43:00;;;;;;;;;;;30.00;1.00;;;;;;5074703;28;19917;-75
2023/04/15 09:45:27;;;;;;;;;;;33.90;1.00;;;;;;5074339;28;19913;-74
2023/04/15 09:47:52;;;;;;;;;;;37.10;1.00;;;;;;5075017;28;19915;-73
2023/04/15 09:50:19;;;;;;;;;;;38.40;1.00;;;;;;5074902;28;19912;-73
2023/04/15 09:52:45;;;;;;;;;;;40.00;1.00;;;;;;5074240;28;19912;-75
2023/04/15 09:55:11;;;;;;;;;;;39.70;1.00;;;;;;5074717;28;19909;-74
2023/04/15 09:57:37;;;;;;;;;;;37.30;1.00;;;;;;5074634;28;20002;-74
2023/04/15 10:00:04;;;;;;;;;;;38.60;1.00;;;;;;5074425;28;19913;-74
2023/04/15 10:02:30;;;;;;;;;;;37.10;1.00;;;;;;5061979;28;19920;-73
2023/04/15 10:04:56;;;;;;;;;;;37.20;1.00;;;;;;5073457;28;19913;-72
2023/04/15 10:07:22;;;;;;;;;;;28.90;1.00;;;;;;5072892;28;19909;-72
2023/04/15 10:09:48;;;;;;;;;;;25.30;1.00;;;;;;5094316;28;20002;-74
2023/04/15 10:12:17;;;;;;;;;;;23.50;1.00;;;;;;5094329;28;19950;-72
2023/04/15 10:14:43;;;;;;;;;;;24.10;1.00;;;;;;5076838;28;19914;-72
2023/04/15 10:17:12;;;;;;;;;;;23.80;1.00;;;;;;5074147;28;19917;-73
2023/04/15 10:19:38;;;;;;;;;;;27.50;1.00;;;;;;5074392;28;19976;-72
2023/04/15 10:22:03;;;;;;;;;;;31.90;1.00;;;;;;5074135;28;19912;-73
2023/04/15 10:24:30;;;;;;;;;;;29.00;1.00;;;;;;5073285;28;20280;-74
2023/04/15 10:26:57;;;;;;;;;;;34.50;1.00;;;;;;5074117;28;20297;-74
2023/04/15 10:29:26;;;;;;;;;;;37.20;1.00;;;;;;5073908;28;19919;-73
2023/04/15 10:31:54;;;;;;;;;;;38.40;1.00;;;;;;5073983;28;20408;-75
2023/04/15 10:34:20;;;;;;;;;;;39.90;1.00;;;;;;5073086;28;20277;-75
2023/04/15 10:36:46;;;;;;;;;;;42.10;1.00;;;;;;5072507;28;19909;-74
2023/04/15 10:39:30;;;;;;;;;;;40.70;1.00;;;;;;5055457;28;20372;-73
2023/04/15 10:42:05;;;;;;;;;;;34.80;1.00;;;;;;5072747;28;19920;-72
2023/04/15 10:44:30;;;;;;;;;;;35.00;1.00;;;;;;5072932;28;19944;-73
2023/04/15 10:46:57;;;;;;;;;;;34.90;1.00;;;;;;5055189;28;20434;-74
2023/04/15 10:49:25;;;;;;;;;;;37.20;1.00;;;;;;5072458;28;19995;-74
2023/04/15 10:51:58;;;;;;;;;;;35.10;1.00;;;;;;5072716;28;19909;-72
2023/04/15 10:54:24;;;;;;;;;;;30.90;1.00;;;;;;5072263;28;19916;-73
2023/04/15 10:57:07;;;;;;;;;;;30.80;1.00;;;;;;5072652;28;20353;-74
2023/04/15 10:59:37;;;;;;;;;;;35.30;1.00;;;;;;5072742;28;19931;-73
2023/04/15 11:02:04;;;;;;;;;;;33.10;1.00;;;;;;5054716;28;20018;-73
2023/04/15 11:04:48;;;;;;;;;;;32.00;1.00;;;;;;5072814;28;19909;-73
2023/04/15 11:07:14;;;;;;;;;;;32.00;1.00;;;;;;5073165;28;19908;-72
2023/04/15 11:09:40;;;;;;;;;;;30.50;1.00;;;;;;5073116;28;20073;-72
2023/04/15 11:12:09;;;;;;;;;;;30.70;1.00;;;;;;5073089;28;19908;-73
2023/04/15 11:14:42;;;;;;;;;;;28.60;1.00;;;;;;5053738;28;19912;-73
2023/04/15 11:17:07;;;;;;;;;;;27.10;1.00;;;;;;5074702;28;20297;-72
2023/04/15 11:19:37;;;;;;;;;;;28.70;1.00;;;;;;5077210;28;19908;-73
2023/04/15 11:22:09;;;;;;;;;;;33.10;1.00;;;;;;5076971;28;19912;-73
2023/04/15 11:24:35;;;;;;;;;;;36.50;1.00;;;;;;5076740;28;19910;-73
2023/04/15 11:27:01;;;;;;;;;;;37.30;1.00;;;;;;5077196;28;19952;-73
2023/04/15 11:29:31;;;;;;;;;;;32.40;1.00;;;;;;5076840;28;20380;-73
2023/04/15 11:32:08;;;;;;;;;;;34.50;1.00;;;;;;5076804;28;19908;-74
2023/04/15 11:34:37;;;;;;;;;;;37.20;1.00;;;;;;5076507;28;19915;-73
2023/04/15 11:37:03;;;;;;;;;;;38.70;1.00;;;;;;5076623;28;19909;-73
2023/04/15 11:39:29;;;;;;;;;;;37.70;1.00;;;;;;5076740;28;19928;-74
2023/04/15 11:41:54;;;;;;;;;;;35.20;1.00;;;;;;5076054;28;19921;-73
2023/04/15 11:44:20;;;;;;;;;;;29.40;1.00;;;;;;5076346;28;19908;-74
2023/04/15 11:46:46;;;;;;;;;;;33.30;1.00;;;;;;5058639;28;19908;-75
2023/04/15 11:49:24;;;;;;;;;;;36.70;1.00;;;;;;5076476;28;19995;-75
2023/04/15 11:51:50;;;;;;;;;;;37.70;1.00;;;;;;5076501;28;19916;-73
2023/04/15 11:54:17;;;;;;;;;;;37.90;1.00;;;;;;5075834;28;19908;-75
2023/04/15 11:56:48;;;;;;;;;;;39.40;1.00;;;;;;5076413;28;19951;-74
2023/04/15 11:59:14;;;;;;;;;;;39.70;1.00;;;;;;5076223;28;19909;-74
2023/04/15 12:01:42;;;;;;;;;;;36.30;1.00;;;;;;5076297;28;19920;-75
2023/04/15 12:04:15;;;;;;;;;;;36.60;1.00;;;;;;5076116;28;20383;-74
2023/04/15 12:06:41;;;;;;;;;;;37.70;1.00;;;;;;5076369;28;20290;-74
2023/04/15 12:09:08;;;;;;;;;;;35.50;1.00;;;;;;5076032;28;19916;-73
2023/04/15 12:11:34;;;;;;;;;;;39.00;1.00;;;;;;5076125;28;19954;-76
2023/04/15 12:14:11;;;;;;;;;;;42.10;1.00;;;;;;5075731;28;19944;-75
2023/04/15 12:16:41;;;;;;;;;;;40.40;1.00;;;;;;5056411;28;19923;-74
2023/04/15 12:19:09;;;;;;;;;;;39.90;1.00;;;;;;5075871;28;19916;-74
2023/04/15 12:21:36;;;;;;;;;;;41.50;1.00;;;;;;5075873;28;19912;-75
2023/04/15 12:24:06;;;;;;;;;;;41.60;1.00;;;;;;5075485;28;19908;-73
2023/04/15 12:26:43;;;;;;;;;;;34.60;1.00;;;;;;5075821;28;19909;-73
2023/04/15 12:29:10;;;;;;;;;;;33.00;1.00;;;;;;5074386;28;19939;-74
2023/04/15 12:31:36;;;;;;;;;;;38.00;1.00;;;;;;5075615;28;20394;-74
2023/04/15 12:34:02;;;;;;;;;;;41.50;1.00;;;;;;5075470;28;20322;-76
2023/04/15 12:36:30;;;;;;;;;;;42.90;1.00;;;;;;5075592;28;20379;-75
2023/04/15 12:38:56;;;;;;;;;;;42.80;1.00;;;;;;5075410;28;19916;-74
2023/04/15 12:41:23;;;;;;;;;;;42.80;1.00;;;;;;5074827;28;19924;-75
2023/04/15 12:43:49;;;;;;;;;;;43.80;1.00;;;;;;5075431;28;19908;-74
2023/04/15 12:46:15;;;;;;;;;;;44.60;1.00;;;;;;5075427;28;20353;-73
2023/04/15 12:48:40;;;;;;;;;;;39.30;1.00;;;;;;5075410;28;19909;-73
2023/04/15 12:51:06;;;;;;;;;;;33.20;1.00;;;;;;5075445;28;19908;-73
2023/04/15 12:53:31;;;;;;;;;;;29.40;1.00;;;;;;5075101;28;19959;-72
2023/04/15 12:55:57;;;;;;;;;;;28.60;1.00;;;;;;5074915;28;19915;-73
2023/04/15 12:58:23;;;;;;;;;;;32.70;1.00;;;;;;5075066;28;19916;-72
2023/04/15 13:00:49;;;;;;;;;;;33.90;1.00;;;;;;5075243;28;19919;-75
2023/04/15 13:03:15;;;;;;;;;;;38.40;1.00;;;;;;5075038;28;19919;-75
2023/04/15 13:05:41;;;;;;;;;;;41.50;1.00;;;;;;5074634;28;19915;-73
2023/04/15 13:08:06;;;;;;;;;;;38.30;1.00;;;;;;5075068;28;20284;-74
2023/04/15 13:10:32;;;;;;;;;;;35.10;1.00;;;;;;5074934;28;19927;-74
2023/04/15 13:12:58;;;;;;;;;;;38.00;1.00;;;;;;5075003;28;20022;-74
2023/04/15 13:15:24;;;;;;;;;;;37.00;1.00;;;;;;5055343;28;19916;-73
2023/04/15 13:17:50;;;;;;;;;;;38.60;1.00;;;;;;5074673;28;19917;-74
2023/04/15 13:20:16;;;;;;;;;;;40.80;1.00;;;;;;5074798;28;19958;-74
2023/04/15 13:22:42;;;;;;;;;;;42.20;1.00;;;;;;5074649;28;20387;-73
2023/04/15 13:25:08;;;;;;;;;;;41.20;1.00;;;;;;5074474;28;19909;-73
2023/04/15 13:27:33;;;;;;;;;;;39.50;1.00;;;;;;5074614;28;20323;-72
2023/04/15 13:29:59;;;;;;;;;;;37.40;1.00;;;;;;5074398;28;19912;-73
2023/04/15 13:32:25;;;;;;;;;;;39.70;1.00;;;;;;5074502;28;19912;-74
2023/04/15 13:34:50;;;;;;;;;;;39.50;1.00;;;;;;5074182;28;19908;-74
2023/04/15 13:37:16;;;;;;;;;;;40.70;1.00;;;;;;5074469;28;19959;-74
2023/04/15 13:39:42;;;;;;;;;;;40.70;1.00;;;;;;5074127;28;19961;-74
2023/04/15 13:42:07;;;;;;;;;;;41.00;1.00;;;;;;5074047;28;19927;-75
2023/04/15 13:44:33;;;;;;;;;;;40.90;1.00;;;;;;5073939;28;19995;-74
2023/04/15 13:46:59;;;;;;;;;;;40.50;1.00;;;;;;5074264;28;19935;-73
2023/04/15 13:49:24;;;;;;;;;;;39.60;1.00;;;;;;5056249;28;19909;-74
2023/04/15 13:51:50;;;;;;;;;;;39.30;1.00;;;;;;5074173;28;19916;-74
2023/04/15 13:54:16;;;;;;;;;;;38.40;1.00;;;;;;5073614;28;19908;-74
2023/04/15 13:56:41;;;;;;;;;;;38.10;1.00;;;;;;5074063;28;20347;-73
2023/04/15 13:59:07;;;;;;;;;;;38.00;1.00;;;;;;5074000;28;19915;-73
2023/04/15 14:01:33;;;;;;;;;;;37.20;1.00;;;;;;5073791;28;19912;-73
2023/04/15 14:03:59;;;;;;;;;;;35.10;1.00;;;;;;5073888;28;19912;-73
2023/04/15 14:06:26;;;;;;;;;;;33.70;1.00;;;;;;5073348;28;20293;-73
2023/04/15 14:08:52;;;;;;;;;;;33.90;1.00;;;;;;5055914;28;20288;-73
2023/04/15 14:11:17;;;;;;;;;;;34.10;1.00;;;;;;5073903;28;19930;-73
2023/04/15 14:13:43;;;;;;;;;;;35.10;1.00;;;;;;5073713;28;19971;-74
2023/04/15 14:16:09;;;;;;;;;;;35.70;1.00;;;;;;5053839;28;20062;-72
2023/04/15 14:18:36;;;;;;;;;;;35.30;1.00;;;;;;5073553;28;19915;-74
2023/04/15 14:21:02;;;;;;;;;;;35.50;1.00;;;;;;5073643;28;19908;-73
2023/04/15 14:23:28;;;;;;;;;;;36.00;1.00;;;;;;5073575;28;19913;-75